Time;durP1;ratioP1;P1;durP2;ratioP2;P2;SDS_P1;SDS_P2;PMS_P1;PMS_P2;Temp;Humidity;BMP_temperature;BMP_pressure;BME280_temperature;BME280_humidity;BME280_pressure;Samples;Min_cycle;Max_cycle;Signal;HPM_P1;HPM_P2
2021/08/22 00:01:22;;;;;;;7.07;6.38;;;20.10;96.80;;;;;;5053008;28;20013;-63
2021/08/22 00:03:47;;;;;;;9.00;7.82;;;20.10;96.80;;;;;;5052608;28;20013;-62
2021/08/22 00:06:13;;;;;;;8.88;7.97;;;20.10;96.90;;;;;;5053415;28;20032;-62
2021/08/22 00:08:39;;;;;;;8.82;7.95;;;20.10;97.00;;;;;;5053250;28;20032;-63
2021/08/22 00:11:05;;;;;;;10.25;9.27;;;20.00;97.00;;;;;;5053275;28;20130;-63
2021/08/22 00:13:31;;;;;;;11.32;10.27;;;20.00;97.10;;;;;;5053374;28;20052;-63
2021/08/22 00:15:57;;;;;;;10.63;9.57;;;20.00;97.30;;;;;;5053134;28;20025;-63
2021/08/22 00:18:23;;;;;;;9.75;8.25;;;20.00;97.40;;;;;;5035077;28;20066;-63
2021/08/22 00:20:48;;;;;;;8.40;7.50;;;20.00;97.40;;;;;;5053232;28;20021;-63
2021/08/22 00:23:14;;;;;;;9.32;7.50;;;20.00;97.50;;;;;;5035025;28;20021;-63
2021/08/22 00:25:39;;;;;;;7.43;6.72;;;20.00;97.60;;;;;;5053103;28;20051;-63
2021/08/22 00:28:05;;;;;;;6.95;6.35;;;19.90;97.60;;;;;;5052931;28;20055;-62
2021/08/22 00:30:30;;;;;;;6.70;6.00;;;19.90;97.70;;;;;;5052987;28;20416;-62
2021/08/22 00:32:56;;;;;;;6.97;6.20;;;19.90;97.70;;;;;;5052768;28;20025;-62
2021/08/22 00:35:21;;;;;;;7.05;6.35;;;19.90;97.80;;;;;;5052480;28;20472;-63
2021/08/22 00:37:47;;;;;;;5.88;5.28;;;19.90;97.80;;;;;;5052968;28;20028;-62
2021/08/22 00:40:12;;;;;;;6.78;6.13;;;19.90;97.80;;;;;;5052660;28;20021;-63
2021/08/22 00:42:38;;;;;;;6.22;5.63;;;19.90;97.80;;;;;;5034837;28;20028;-62
2021/08/22 00:45:05;;;;;;;8.82;6.00;;;19.90;97.90;;;;;;5052351;28;20057;-62
2021/08/22 00:47:31;;;;;;;6.75;6.05;;;19.90;97.90;;;;;;5032697;28;20060;-63
2021/08/22 00:49:58;;;;;;;7.82;5.75;;;19.90;98.00;;;;;;5032759;28;20021;-63
2021/08/22 00:52:26;;;;;;;6.68;5.22;;;19.90;98.00;;;;;;5012405;28;20025;-62
2021/08/22 00:54:52;;;;;;;6.82;6.13;;;19.80;98.00;;;;;;5032554;28;20504;-62
2021/08/22 00:57:17;;;;;;;6.68;5.95;;;19.80;98.00;;;;;;5032525;28;20041;-62
2021/08/22 00:59:43;;;;;;;6.68;5.88;;;19.80;98.00;;;;;;5032625;28;20021;-63
2021/08/22 01:02:28;;;;;;;7.75;6.72;;;19.80;98.10;;;;;;5032248;28;20024;-62
2021/08/22 01:05:04;;;;;;;7.30;6.28;;;19.80;98.20;;;;;;5032283;28;20052;-62
2021/08/22 01:07:55;;;;;;;6.80;5.88;;;19.70;98.30;;;;;;5032418;28;20017;-62
2021/08/22 01:10:25;;;;;;;5.78;5.28;;;19.70;98.30;;;;;;5013888;28;20095;-62
2021/08/22 01:13:17;;;;;;;7.15;5.68;;;19.70;98.40;;;;;;5032332;28;20021;-62
2021/08/22 01:15:47;;;;;;;5.35;4.85;;;19.70;98.40;;;;;;5010804;28;20116;-62
2021/08/22 01:18:14;;;;;;;;;;;19.60;98.50;;;;;;5032551;28;20032;-63
2021/08/22 01:20:58;;;;;;;5.22;4.72;;;19.60;98.50;;;;;;5031907;28;19905;-62
2021/08/22 01:23:24;;;;;;;5.82;4.18;;;19.50;98.60;;;;;;5031194;28;20508;-63
2021/08/22 01:25:51;;;;;;;5.32;4.30;;;19.50;98.60;;;;;;5031665;28;20029;-62
2021/08/22 01:28:17;;;;;;;5.65;5.07;;;19.50;98.60;;;;;;5014266;28;20040;-62
2021/08/22 01:30:46;;;;;;;5.80;4.78;;;19.50;98.60;;;;;;5032177;28;20026;-62
2021/08/22 01:33:13;;;;;;;5.67;5.07;;;19.50;98.60;;;;;;5014123;28;20029;-63
2021/08/22 01:35:40;;;;;;;6.72;5.60;;;19.50;98.60;;;;;;5031659;28;20043;-62
2021/08/22 01:38:06;;;;;;;6.38;5.53;;;19.40;99.00;;;;;;5031858;28;20528;-62
2021/08/22 01:40:32;;;;;;;8.68;5.32;;;19.40;98.80;;;;;;5031987;28;20473;-63
2021/08/22 01:42:58;;;;;;;7.15;5.15;;;19.40;98.90;;;;;;5014143;28;20021;-62
2021/08/22 01:45:25;;;;;;;6.65;5.03;;;19.30;99.00;;;;;;5034076;28;20033;-63
2021/08/22 01:47:50;;;;;;;5.93;5.30;;;19.30;99.10;;;;;;5051515;28;20452;-62
2021/08/22 01:50:22;;;;;;;5.93;5.30;;;19.20;99.30;;;;;;5051659;28;20068;-62
2021/08/22 01:52:56;;;;;;;5.47;4.93;;;19.20;99.40;;;;;;5051534;28;20478;-62
2021/08/22 01:55:22;;;;;;;6.03;5.43;;;19.20;99.70;;;;;;5051312;28;20021;-62
2021/08/22 01:57:48;;;;;;;5.47;4.88;;;19.20;99.50;;;;;;5051604;28;20024;-62
2021/08/22 02:00:14;;;;;;;6.00;5.40;;;19.20;99.50;;;;;;5051391;28;20092;-62
2021/08/22 02:03:10;;;;;;;6.45;5.85;;;19.20;99.50;;;;;;5051131;28;20044;-63
2021/08/22 02:05:39;;;;;;;8.15;5.40;;;19.10;99.50;;;;;;5047767;28;20029;-62
2021/08/22 02:08:12;;;;;;;7.05;6.13;;;19.10;99.60;;;;;;5051446;28;20107;-63
2021/08/22 02:10:44;;;;;;;8.07;6.28;;;19.00;99.70;;;;;;5051541;28;20029;-62
2021/08/22 02:13:10;;;;;;;6.57;5.88;;;19.00;99.80;;;;;;5033831;28;20017;-62
2021/08/22 02:15:42;;;;;;;6.57;5.85;;;19.00;99.80;;;;;;5051612;28;20025;-62
2021/08/22 02:18:12;;;;;;;7.93;7.13;;;19.00;99.90;;;;;;5050108;28;20013;-62
2021/08/22 02:20:40;;;;;;;;;;;18.90;99.90;;;;;;5051764;28;20063;-63
2021/08/22 02:23:08;;;;;;;7.35;6.65;;;18.90;99.90;;;;;;5048959;28;19913;-62
2021/08/22 02:25:34;;;;;;;9.80;8.57;;;18.80;99.90;;;;;;5052146;28;20389;-62
2021/08/22 02:28:00;;;;;;;9.90;8.60;;;18.80;99.90;;;;;;5055032;28;20123;-62
2021/08/22 02:30:31;;;;;;;10.15;9.15;;;18.90;99.90;;;;;;5055108;28;20450;-63
2021/08/22 02:32:57;;;;;;;10.75;9.65;;;18.80;99.90;;;;;;5055039;28;20019;-62
2021/08/22 02:35:22;;;;;;;13.85;12.30;;;18.80;99.90;;;;;;5054872;28;20094;-62
2021/08/22 02:37:48;;;;;;;12.73;11.43;;;18.80;99.90;;;;;;5055098;28;20469;-62
2021/08/22 02:40:14;;;;;;;12.80;11.50;;;18.80;99.90;;;;;;5055038;28;20097;-62
2021/08/22 02:42:39;;;;;;;15.57;13.90;;;18.80;99.90;;;;;;5055015;28;20029;-62
2021/08/22 02:45:07;;;;;;;13.77;12.38;;;18.80;99.90;;;;;;5054738;28;20017;-62
2021/08/22 02:47:32;;;;;;;14.18;12.68;;;18.80;99.90;;;;;;5054733;28;20049;-62
2021/08/22 02:49:58;;;;;;;15.32;13.70;;;18.70;99.90;;;;;;5054997;28;20116;-62
2021/08/22 02:52:23;;;;;;;13.65;12.25;;;18.70;99.90;;;;;;5054872;28;20384;-62
2021/08/22 02:54:49;;;;;;;15.10;13.27;;;18.60;99.90;;;;;;5054781;28;20025;-62
2021/08/22 02:57:18;;;;;;;15.68;14.10;;;18.60;99.90;;;;;;5054800;28;20023;-62
2021/08/22 02:59:44;;;;;;;16.55;14.75;;;18.60;99.90;;;;;;5055247;28;20020;-62
2021/08/22 03:02:10;;;;;;;14.65;13.15;;;18.50;99.90;;;;;;5054642;28;20017;-62
2021/08/22 03:04:35;;;;;;;18.67;16.35;;;18.50;99.90;;;;;;5054554;28;20033;-62
2021/08/22 03:07:01;;;;;;;20.08;17.77;;;18.50;99.90;;;;;;5054345;28;20113;-62
2021/08/22 03:09:26;;;;;;;18.77;15.60;;;18.50;99.90;;;;;;5054556;28;20057;-62
2021/08/22 03:11:52;;;;;;;22.25;19.38;;;18.50;99.90;;;;;;5054594;28;20476;-62
2021/08/22 03:14:17;;;;;;;25.35;20.73;;;18.40;99.90;;;;;;5054402;28;20032;-62
2021/08/22 03:16:43;;;;;;;23.75;20.67;;;18.50;99.90;;;;;;5054303;28;20548;-62
2021/08/22 03:19:08;;;;;;;29.17;23.75;;;18.50;99.90;;;;;;5036565;28;20025;-62
2021/08/22 03:21:34;;;;;;;23.48;20.30;;;18.40;99.90;;;;;;5054113;28;20092;-62
2021/08/22 03:23:59;;;;;;;26.70;22.98;;;18.40;99.90;;;;;;5054270;28;20028;-62
2021/08/22 03:26:25;;;;;;;23.80;21.10;;;18.40;99.90;;;;;;5054147;28;20574;-62
2021/08/22 03:28:51;;;;;;;22.63;19.23;;;18.40;99.90;;;;;;5054317;28;20095;-62
2021/08/22 03:31:17;;;;;;;21.45;19.15;;;18.40;99.90;;;;;;5054219;28;20048;-62
2021/08/22 03:33:43;;;;;;;24.85;20.92;;;18.40;99.90;;;;;;5053882;28;20448;-62
2021/08/22 03:36:08;;;;;;;24.77;20.50;;;18.40;99.90;;;;;;5053900;28;20384;-62
2021/08/22 03:38:34;;;;;;;28.73;23.58;;;18.40;99.90;;;;;;5053171;28;20105;-62
2021/08/22 03:40:59;;;;;;;26.23;23.35;;;18.40;99.90;;;;;;5053993;28;20048;-62
2021/08/22 03:43:26;;;;;;;28.27;25.10;;;18.40;99.90;;;;;;5051253;28;20044;-62
2021/08/22 03:45:51;;;;;;;27.33;23.55;;;18.30;99.90;;;;;;5035824;28;20508;-62
2021/08/22 03:48:17;;;;;;;27.77;24.05;;;18.30;99.90;;;;;;5053637;28;20024;-62
2021/08/22 03:50:43;;;;;;;27.35;23.40;;;18.40;99.90;;;;;;5053651;28;20096;-62
2021/08/22 03:53:08;;;;;;;28.48;24.52;;;18.40;99.90;;;;;;5053717;28;20396;-62
2021/08/22 03:55:34;;;;;;;28.00;24.05;;;18.30;99.90;;;;;;5053515;28;20104;-62
2021/08/22 03:57:59;;;;;;;27.85;24.85;;;18.40;99.90;;;;;;5053681;28;20055;-62
2021/08/22 04:00:25;;;;;;;25.50;22.17;;;18.30;99.90;;;;;;5050973;28;20025;-62
2021/08/22 04:02:50;;;;;;;27.75;23.08;;;18.30;99.90;;;;;;5053523;28;20017;-62
2021/08/22 04:05:16;;;;;;;30.42;24.63;;;18.30;99.90;;;;;;5033092;28;20032;-62
2021/08/22 04:07:48;;;;;;;30.70;25.75;;;18.30;99.90;;;;;;5053118;28;20048;-62
2021/08/22 04:10:15;;;;;;;28.38;23.20;;;18.30;99.90;;;;;;5053486;28;20021;-62
2021/08/22 04:12:40;;;;;;;31.83;24.67;;;18.30;99.90;;;;;;5053107;28;20040;-62
2021/08/22 04:15:06;;;;;;;27.58;24.15;;;18.20;99.90;;;;;;5053330;28;20025;-62
2021/08/22 04:17:32;;;;;;;31.10;25.02;;;18.20;99.90;;;;;;5053389;28;20033;-62
2021/08/22 04:19:57;;;;;;;28.15;24.50;;;18.20;99.90;;;;;;5052701;28;20100;-62
2021/08/22 04:22:23;;;;;;;28.13;23.23;;;18.20;99.90;;;;;;5053462;28;20127;-62
2021/08/22 04:24:49;;;;;;;28.38;24.83;;;18.20;99.90;;;;;;5053144;28;20067;-62
2021/08/22 04:27:14;;;;;;;29.80;25.10;;;18.10;99.90;;;;;;5053105;28;20029;-62
2021/08/22 04:29:40;;;;;;;29.33;23.95;;;18.10;99.90;;;;;;5053056;28;20071;-62
2021/08/22 04:32:07;;;;;;;31.90;25.05;;;18.10;99.90;;;;;;5050322;28;20032;-62
2021/08/22 04:34:33;;;;;;;30.65;24.58;;;18.10;99.90;;;;;;5034797;28;20033;-62
2021/08/22 04:36:58;;;;;;;34.58;26.33;;;18.10;99.90;;;;;;5052812;28;20013;-62
2021/08/22 04:39:24;;;;;;;32.53;25.67;;;18.10;99.90;;;;;;5052802;28;20017;-62
2021/08/22 04:41:49;;;;;;;33.70;26.58;;;18.10;99.90;;;;;;5052803;28;20044;-62
2021/08/22 04:44:15;;;;;;;33.78;26.95;;;18.10;99.90;;;;;;5052799;28;20506;-62
2021/08/22 04:46:43;;;;;;;30.20;23.90;;;18.00;99.90;;;;;;5052343;28;20059;-62
2021/08/22 04:49:09;;;;;;;35.20;26.15;;;18.10;99.90;;;;;;5052564;28;20013;-62
2021/08/22 04:51:36;;;;;;;32.53;24.50;;;18.10;99.90;;;;;;5052592;28;20469;-62
2021/08/22 04:54:01;;;;;;;35.80;26.42;;;18.10;99.90;;;;;;5052237;28;20081;-62
2021/08/22 04:56:27;;;;;;;34.50;26.42;;;18.00;99.90;;;;;;5052588;28;20060;-62
2021/08/22 04:58:52;;;;;;;39.40;29.20;;;18.10;99.90;;;;;;5052418;28;20049;-62
2021/08/22 05:01:18;;;;;;;40.03;25.98;;;18.10;99.90;;;;;;5052540;28;20528;-62
2021/08/22 05:03:44;;;;;;;38.80;28.83;;;18.00;99.90;;;;;;5052094;28;20035;-62
2021/08/22 05:06:10;;;;;;;39.25;28.58;;;18.10;99.90;;;;;;5052064;28;20366;-62
2021/08/22 05:08:35;;;;;;;32.25;24.75;;;18.10;99.90;;;;;;5052408;28;20036;-62
2021/08/22 05:11:01;;;;;;;38.83;28.27;;;18.10;99.90;;;;;;5052039;28;20087;-62
2021/08/22 05:13:27;;;;;;;41.65;29.48;;;18.10;99.90;;;;;;5052389;28;20534;-62
2021/08/22 05:15:56;;;;;;;37.40;26.88;;;18.10;99.90;;;;;;5052196;28;20025;-62
2021/08/22 05:18:23;;;;;;;42.45;31.70;;;18.10;99.90;;;;;;5051788;28;20115;-62
2021/08/22 05:20:49;;;;;;;40.85;29.35;;;18.00;99.90;;;;;;5051739;28;20469;-62
2021/08/22 05:23:15;;;;;;;36.90;27.52;;;18.10;99.90;;;;;;5050881;28;20028;-63
2021/08/22 05:25:41;;;;;;;34.42;26.13;;;18.10;99.90;;;;;;5051456;28;20037;-62
2021/08/22 05:28:06;;;;;;;37.83;27.27;;;18.10;99.90;;;;;;5051901;28;20439;-62
2021/08/22 05:30:32;;;;;;;41.47;29.17;;;18.10;99.90;;;;;;5034726;28;20063;-62
2021/08/22 05:32:58;;;;;;;31.30;24.17;;;18.10;99.90;;;;;;5047960;28;20112;-62
2021/08/22 05:35:23;;;;;;;34.10;24.20;;;18.10;99.90;;;;;;5049614;28;20033;-62
2021/08/22 05:37:49;;;;;;;31.15;23.27;;;18.10;99.90;;;;;;5037202;28;20096;-62
2021/08/22 05:40:21;;;;;;;28.63;21.95;;;18.20;99.90;;;;;;5050895;28;20548;-62
2021/08/22 05:42:46;;;;;;;30.60;23.10;;;18.20;99.90;;;;;;5051564;28;20559;-62
2021/08/22 05:45:12;;;;;;;32.83;23.67;;;18.20;99.90;;;;;;5033817;28;20021;-62
2021/08/22 05:47:46;;;;;;;31.45;22.92;;;18.20;99.90;;;;;;5052516;28;20084;-62
2021/08/22 05:50:12;;;;;;;35.13;26.10;;;18.20;99.90;;;;;;5052129;28;20036;-62
2021/08/22 05:52:38;;;;;;;33.40;25.40;;;18.20;99.90;;;;;;5051455;28;20083;-62
2021/08/22 05:55:05;;;;;;;33.92;25.35;;;18.20;99.90;;;;;;5051409;28;20052;-62
2021/08/22 05:57:30;;;;;;;39.80;29.10;;;18.20;99.90;;;;;;5052294;28;20014;-62
2021/08/22 05:59:56;;;;;;;35.83;25.55;;;18.20;99.90;;;;;;5052830;28;20017;-61
2021/08/22 06:02:22;;;;;;;35.95;27.10;;;18.20;99.90;;;;;;5059388;28;20021;-62
2021/08/22 06:04:47;;;;;;;37.00;23.15;;;18.20;99.90;;;;;;5059117;28;20029;-62
2021/08/22 06:07:18;;;;;;;36.28;25.40;;;18.30;99.90;;;;;;5057888;28;20032;-62
2021/08/22 06:09:45;;;;;;;37.42;28.63;;;18.20;99.90;;;;;;5059159;28;20182;-62
2021/08/22 06:12:10;;;;;;;38.33;28.52;;;18.20;99.90;;;;;;5057725;28;20028;-62
2021/08/22 06:14:36;;;;;;;36.83;27.88;;;18.20;99.90;;;;;;5058576;28;20499;-62
2021/08/22 06:17:01;;;;;;;30.73;24.48;;;18.20;99.90;;;;;;5058602;28;20029;-62
2021/08/22 06:19:27;;;;;;;35.08;25.70;;;18.20;99.90;;;;;;5058535;28;20029;-62
2021/08/22 06:21:52;;;;;;;35.80;28.67;;;18.20;99.90;;;;;;5058707;28;20029;-62
2021/08/22 06:24:39;;;;;;;34.00;27.02;;;18.20;99.90;;;;;;5058984;28;20062;-62
2021/08/22 06:27:05;;;;;;;34.85;27.40;;;18.20;99.90;;;;;;5059013;28;20067;-62
2021/08/22 06:29:30;;;;;;;38.33;28.67;;;18.20;99.90;;;;;;5059236;28;20029;-62
2021/08/22 06:31:56;;;;;;;35.13;26.40;;;18.20;99.90;;;;;;5058787;28;20067;-61
2021/08/22 06:34:21;;;;;;;38.15;29.27;;;18.20;99.90;;;;;;5058544;28;20439;-62
2021/08/22 06:36:48;;;;;;;37.92;29.17;;;18.20;99.90;;;;;;5058329;28;20059;-62
2021/08/22 06:39:13;;;;;;;32.38;26.67;;;18.30;99.90;;;;;;5055660;28;20407;-62
2021/08/22 06:41:39;;;;;;;30.88;24.83;;;18.30;99.90;;;;;;5058325;28;20032;-62
2021/08/22 06:44:05;;;;;;;29.40;23.83;;;18.20;99.90;;;;;;5058436;28;20021;-62
2021/08/22 06:46:31;;;;;;;31.23;24.13;;;18.30;99.90;;;;;;5058150;28;20098;-62
2021/08/22 06:48:56;;;;;;;26.17;21.25;;;18.30;99.90;;;;;;5058191;28;20025;-62
2021/08/22 06:51:23;;;;;;;29.40;22.88;;;18.30;99.90;;;;;;5058484;28;20048;-62
2021/08/22 06:53:49;;;;;;;24.17;20.02;;;18.40;99.90;;;;;;5056891;28;20016;-62
2021/08/22 06:56:15;;;;;;;28.85;20.95;;;18.50;99.90;;;;;;5058073;28;20017;-62
2021/08/22 06:59:02;;;;;;;27.65;21.13;;;18.50;99.90;;;;;;5058324;28;20029;-62
2021/08/22 07:01:27;;;;;;;23.45;18.83;;;18.70;99.90;;;;;;5058134;28;20016;-62
2021/08/22 07:03:53;;;;;;;27.23;21.20;;;18.70;99.90;;;;;;5040171;28;20420;-62
2021/08/22 07:06:18;;;;;;;23.73;20.45;;;18.70;99.90;;;;;;5058118;28;20492;-61
2021/08/22 07:08:44;;;;;;;26.00;22.27;;;18.70;99.90;;;;;;5057911;28;20107;-61
2021/08/22 07:11:09;;;;;;;28.15;23.65;;;18.80;99.90;;;;;;5058024;28;20028;-62
2021/08/22 07:13:41;;;;;;;27.17;22.65;;;18.80;99.90;;;;;;5053712;28;20028;-62
2021/08/22 07:16:25;;;;;;;34.50;27.77;;;18.70;99.90;;;;;;5054848;28;20048;-61
2021/08/22 07:19:40;;;;;;;29.42;24.33;;;18.70;99.90;;;;;;5054939;28;20063;-62
2021/08/22 07:22:06;;;;;;;29.38;23.95;;;18.80;99.90;;;;;;5034899;28;20376;-61
2021/08/22 07:25:03;;;;;;;29.85;25.10;;;18.70;99.90;;;;;;5036412;28;20024;-62
2021/08/22 07:27:29;;;;;;;28.27;24.38;;;18.70;99.90;;;;;;5053153;28;20039;-62
2021/08/22 07:29:54;;;;;;;27.00;22.80;;;18.80;99.90;;;;;;5054740;28;20465;-62
2021/08/22 07:32:20;;;;;;;28.27;23.80;;;18.80;99.90;;;;;;5054437;28;20028;-62
2021/08/22 07:34:45;;;;;;;26.40;23.38;;;18.90;99.90;;;;;;5054614;28;20032;-62
2021/08/22 07:37:11;;;;;;;25.63;22.85;;;18.90;99.90;;;;;;5054458;28;20473;-61
2021/08/22 07:39:36;;;;;;;29.77;25.02;;;19.00;99.90;;;;;;5054295;28;20021;-62
2021/08/22 07:42:02;;;;;;;27.13;23.15;;;19.00;99.90;;;;;;5054331;28;20025;-62
2021/08/22 07:44:28;;;;;;;29.85;24.65;;;19.10;99.90;;;;;;5036795;28;20056;-62
2021/08/22 07:46:53;;;;;;;26.75;23.75;;;19.10;99.90;;;;;;5054207;28;20084;-62
2021/08/22 07:49:19;;;;;;;25.55;21.15;;;19.10;99.90;;;;;;5054249;28;20415;-62
2021/08/22 07:51:46;;;;;;;25.42;21.02;;;19.20;99.90;;;;;;5053768;28;20035;-62
2021/08/22 07:54:12;;;;;;;21.73;19.02;;;19.20;99.90;;;;;;5068108;28;20032;-63
2021/08/22 07:57:04;;;;;;;22.50;19.77;;;19.30;99.90;;;;;;5071117;28;20060;-63
2021/08/22 07:59:29;;;;;;;20.75;16.30;;;19.30;99.90;;;;;;5043202;28;20439;-63
2021/08/22 08:01:57;;;;;;;24.70;20.85;;;19.30;99.90;;;;;;5054324;28;20062;-62
2021/08/22 08:04:22;;;;;;;21.30;18.83;;;19.30;99.70;;;;;;5036521;28;20392;-63
2021/08/22 08:06:48;;;;;;;21.40;19.10;;;19.40;99.70;;;;;;5054355;28;20028;-63
2021/08/22 08:09:36;;;;;;;;;;;;;;;;;;;;;
2021/08/22 08:12:02;;;;;;;19.75;17.65;;;19.40;99.50;;;;;;5054163;28;20028;-62
2021/08/22 08:14:28;;;;;;;19.02;16.88;;;19.40;99.60;;;;;;5054208;28;20116;-62
2021/08/22 08:16:53;;;;;;;20.50;18.20;;;19.40;99.60;;;;;;5054099;28;20056;-62
2021/08/22 08:19:19;;;;;;;21.00;18.80;;;19.40;99.50;;;;;;5052720;28;20103;-62
2021/08/22 08:21:44;;;;;;;20.45;17.95;;;19.50;99.40;;;;;;5053855;28;20452;-62
2021/08/22 08:24:10;;;;;;;19.50;17.48;;;19.50;99.40;;;;;;5053619;28;20109;-62
2021/08/22 08:26:36;;;;;;;20.63;18.38;;;19.60;99.40;;;;;;5053769;28;20067;-62
2021/08/22 08:29:02;;;;;;;22.70;20.27;;;19.60;99.30;;;;;;5053764;28;20044;-62
2021/08/22 08:31:28;;;;;;;19.88;17.88;;;19.60;99.20;;;;;;5053874;28;20068;-62
2021/08/22 08:33:53;;;;;;;23.23;20.77;;;19.60;99.20;;;;;;5053710;28;20040;-62
2021/08/22 08:36:19;;;;;;;26.40;23.08;;;19.60;99.10;;;;;;5053547;28;20021;-62
2021/08/22 08:38:44;;;;;;;21.95;19.40;;;19.50;99.00;;;;;;5053112;28;20036;-62
2021/08/22 08:41:10;;;;;;;21.30;19.05;;;19.60;99.00;;;;;;5053581;28;20117;-63
2021/08/22 08:43:35;;;;;;;18.60;16.70;;;19.70;99.00;;;;;;5053697;28;20049;-62
2021/08/22 08:46:09;;;;;;;21.33;18.73;;;19.70;98.90;;;;;;5053335;28;20088;-63
2021/08/22 08:49:11;;;;;;;19.42;17.33;;;19.80;98.90;;;;;;5053432;28;20112;-62
2021/08/22 08:55:06;;;;;;;16.80;15.20;;;20.00;98.70;;;;;;5029005;28;20115;-63
2021/08/22 08:57:32;;;;;;;25.52;22.70;;;19.90;98.70;;;;;;5053371;28;20433;-62
2021/08/22 08:59:58;;;;;;;24.40;21.90;;;19.90;98.70;;;;;;5053270;28;20027;-62
2021/08/22 09:02:23;;;;;;;20.95;18.85;;;19.90;98.60;;;;;;5053176;28;20032;-63
2021/08/22 09:04:57;;;;;;;23.92;21.35;;;19.80;98.60;;;;;;5053367;28;20029;-63
2021/08/22 09:08:02;;;;;;;22.65;20.25;;;19.90;98.60;;;;;;5053119;28;20472;-63
2021/08/22 09:11:05;;;;;;;24.02;21.52;;;19.80;98.40;;;;;;5043833;28;20025;-63
2021/08/22 09:13:59;;;;;;;21.02;18.85;;;19.70;98.50;;;;;;5039548;28;20397;-62
2021/08/22 09:17:01;;;;;;;18.33;16.33;;;19.70;98.60;;;;;;5038755;28;20540;-62
2021/08/22 09:20:07;;;;;;;16.58;14.82;;;19.80;98.50;;;;;;5053015;28;20021;-63
2021/08/22 09:23:10;;;;;;;16.27;14.50;;;20.00;98.30;;;;;;5052992;28;20060;-62
2021/08/22 09:26:25;;;;;;;16.25;14.63;;;20.00;98.00;;;;;;5052258;28;20528;-62
2021/08/22 09:29:10;;;;;;;15.07;13.45;;;20.00;97.90;;;;;;4990055;28;20123;-62
2021/08/22 09:32:22;;;;;;;14.88;13.23;;;20.00;98.00;;;;;;5052361;28;20025;-62
2021/08/22 09:35:25;;;;;;;12.15;10.95;;;20.10;97.90;;;;;;5050459;28;20119;-62
2021/08/22 09:38:18;;;;;;;11.48;10.27;;;20.10;98.00;;;;;;5052239;28;20017;-62
2021/08/22 09:40:59;;;;;;;13.73;12.32;;;20.10;98.00;;;;;;5052071;28;20013;-62
2021/08/22 09:44:09;;;;;;;13.65;11.15;;;20.20;98.00;;;;;;5052191;28;20021;-62
2021/08/22 09:47:29;;;;;;;;;;;;;;;;;;;;;
2021/08/22 09:50:10;;;;;;;11.10;10.07;;;20.30;98.10;;;;;;5052109;28;20032;-62
2021/08/22 09:52:37;;;;;;;10.45;9.40;;;20.40;98.10;;;;;;5051816;28;20027;-62
2021/08/22 09:55:29;;;;;;;11.25;8.88;;;20.50;98.10;;;;;;5051873;28;20056;-62
2021/08/22 09:58:23;;;;;;;9.65;8.10;;;20.60;97.60;;;;;;5051728;28;20029;-62
2021/08/22 10:01:11;;;;;;;9.27;8.10;;;20.60;97.50;;;;;;5051625;28;20051;-62
2021/08/22 10:04:25;;;;;;;7.95;7.15;;;20.60;97.10;;;;;;5051717;28;20389;-62
2021/08/22 10:07:34;;;;;;;7.88;7.10;;;20.60;96.80;;;;;;4994112;28;20487;-62
2021/08/22 10:10:06;;;;;;;7.70;6.95;;;20.70;96.40;;;;;;4996539;28;20030;-62
2021/08/22 10:12:31;;;;;;;8.68;7.78;;;20.90;96.40;;;;;;5051755;28;20543;-63
2021/08/22 10:14:57;;;;;;;7.70;6.97;;;21.10;96.10;;;;;;5050586;28;20033;-62
2021/08/22 10:17:25;;;;;;;8.50;7.70;;;21.30;95.90;;;;;;5034556;28;20040;-62
2021/08/22 10:19:52;;;;;;;10.10;9.10;;;21.40;95.70;;;;;;5052203;28;20012;-63
2021/08/22 10:22:33;;;;;;;10.65;9.57;;;21.60;95.40;;;;;;5052221;28;20040;-62
2021/08/22 10:25:06;;;;;;;11.20;10.10;;;21.70;94.80;;;;;;5034250;28;20021;-62
2021/08/22 10:27:32;;;;;;;11.85;10.70;;;21.70;94.50;;;;;;5052166;28;20028;-62
2021/08/22 10:30:17;;;;;;;11.93;10.80;;;21.70;94.40;;;;;;5051184;28;20025;-63
2021/08/22 10:32:57;;;;;;;13.20;11.90;;;21.70;94.30;;;;;;5051611;28;20055;-63
2021/08/22 10:35:27;;;;;;;13.02;11.82;;;21.70;94.10;;;;;;5050953;28;20033;-63
2021/08/22 10:37:52;;;;;;;;;;;21.70;94.00;;;;;;5051591;28;20041;-62
2021/08/22 10:40:32;;;;;;;12.65;11.43;;;21.70;94.00;;;;;;5051445;28;19905;-63
2021/08/22 10:43:13;;;;;;;12.73;11.18;;;21.70;93.80;;;;;;5051189;28;20109;-62
2021/08/22 10:46:11;;;;;;;12.43;11.25;;;21.70;93.70;;;;;;5045244;28;20115;-63
2021/08/22 10:48:36;;;;;;;12.77;11.05;;;21.70;93.60;;;;;;5035360;28;20378;-63
2021/08/22 10:51:02;;;;;;;12.63;11.43;;;21.70;93.60;;;;;;5035084;28;20052;-63
2021/08/22 10:53:29;;;;;;;11.57;10.48;;;21.80;93.50;;;;;;5035005;28;20559;-63
2021/08/22 10:55:56;;;;;;;12.70;11.45;;;21.80;93.40;;;;;;5034926;28;20088;-63
2021/08/22 10:59:18;;;;;;;11.75;10.55;;;21.70;93.30;;;;;;5035571;28;20105;-63
2021/08/22 11:01:43;;;;;;;12.48;11.27;;;21.70;93.30;;;;;;5035275;28;20373;-63
2021/08/22 11:04:09;;;;;;;12.88;11.57;;;21.70;93.30;;;;;;5034862;28;20022;-63
2021/08/22 11:07:29;;;;;;;;;;;;;;;;;;;;;
2021/08/22 11:13:16;;;;;;;12.40;11.15;;;21.50;93.20;;;;;;4954190;29;20031;-63
2021/08/22 11:15:43;;;;;;;11.93;10.73;;;21.60;93.50;;;;;;4964990;28;20039;-62
2021/08/22 11:18:15;;;;;;;10.73;9.77;;;21.70;93.30;;;;;;5035316;28;20075;-63
2021/08/22 11:20:43;;;;;;;9.77;8.85;;;21.80;93.20;;;;;;5035315;28;20141;-63
2021/08/22 11:23:16;;;;;;;9.73;8.77;;;22.20;93.10;;;;;;5035261;28;20421;-63
2021/08/22 11:25:46;;;;;;;10.98;9.88;;;22.50;92.20;;;;;;5021937;28;20252;-62
2021/08/22 11:28:52;;;;;;;10.27;9.27;;;22.50;91.80;;;;;;5035338;28;20438;-63
2021/08/22 11:31:18;;;;;;;10.10;9.20;;;22.50;91.50;;;;;;5026049;28;20084;-63
2021/08/22 11:33:44;;;;;;;10.23;9.18;;;22.50;91.30;;;;;;5035089;28;20025;-63
2021/08/22 11:36:09;;;;;;;9.77;8.77;;;22.60;91.20;;;;;;5034639;28;20466;-62
2021/08/22 11:38:35;;;;;;;8.88;7.97;;;22.70;91.00;;;;;;5033690;28;20026;-63
2021/08/22 11:41:02;;;;;;;9.18;7.22;;;22.80;90.90;;;;;;5017156;28;20032;-63
2021/08/22 11:43:28;;;;;;;8.88;7.95;;;23.00;90.90;;;;;;5034467;28;20068;-62
2021/08/22 11:46:22;;;;;;;9.57;8.30;;;23.30;90.60;;;;;;5020253;28;20037;-62
2021/08/22 11:48:47;;;;;;;8.40;7.43;;;23.60;90.10;;;;;;5052711;28;20024;-62
2021/08/22 11:51:13;;;;;;;9.35;8.00;;;23.90;89.20;;;;;;5054203;28;20017;-62
2021/08/22 11:53:39;;;;;;;11.30;9.50;;;24.30;88.10;;;;;;5052418;28;20516;-62
2021/08/22 11:56:04;;;;;;;9.05;8.15;;;24.60;86.20;;;;;;5053023;28;20032;-62
2021/08/22 11:58:34;;;;;;;8.48;7.57;;;24.70;84.80;;;;;;5052274;28;20112;-63
2021/08/22 12:01:12;;;;;;;9.32;7.88;;;25.10;84.10;;;;;;5053377;28;20017;-63
2021/08/22 12:03:38;;;;;;;10.27;9.25;;;25.20;82.80;;;;;;5053765;28;20032;-63
2021/08/22 12:06:07;;;;;;;9.75;8.43;;;25.20;81.30;;;;;;5052918;28;20025;-63
2021/08/22 12:08:34;;;;;;;9.65;7.88;;;25.30;81.30;;;;;;5053158;28;20382;-63
2021/08/22 12:11:22;;;;;;;8.88;7.97;;;25.40;81.40;;;;;;5052002;28;20603;-63
2021/08/22 12:13:48;;;;;;;9.82;8.02;;;25.60;80.40;;;;;;5052811;28;20033;-63
2021/08/22 12:16:31;;;;;;;9.52;8.50;;;25.60;80.40;;;;;;5034511;28;20025;-63
2021/08/22 12:19:15;;;;;;;9.65;6.57;;;25.60;79.00;;;;;;5053892;28;20025;-62
2021/08/22 12:21:41;;;;;;;7.63;6.05;;;25.60;79.20;;;;;;5051171;28;20025;-63
2021/08/22 12:24:19;;;;;;;9.90;7.18;;;25.50;79.60;;;;;;5052501;28;20079;-63
2021/08/22 12:27:15;;;;;;;8.35;6.32;;;25.60;79.30;;;;;;5053187;28;20025;-63
2021/08/22 12:29:41;;;;;;;6.40;5.80;;;26.00;78.60;;;;;;5019592;28;20071;-63
2021/08/22 12:32:19;;;;;;;5.35;4.80;;;26.20;76.90;;;;;;5052952;28;20045;-62
2021/08/22 12:34:45;;;;;;;6.27;5.20;;;26.30;76.30;;;;;;5052824;28;20115;-63
2021/08/22 12:37:11;;;;;;;5.78;4.55;;;26.60;76.00;;;;;;5052985;28;20100;-63
2021/08/22 12:39:37;;;;;;;7.88;5.55;;;27.10;75.50;;;;;;5053314;28;20021;-63
2021/08/22 12:42:03;;;;;;;4.85;4.40;;;27.40;74.40;;;;;;5052813;28;20051;-63
2021/08/22 12:44:29;;;;;;;5.88;4.80;;;27.30;73.60;;;;;;5051783;28;20404;-63
2021/08/22 12:47:00;;;;;;;4.70;3.65;;;27.10;74.30;;;;;;5052720;28;20044;-63
2021/08/22 12:49:26;;;;;;;4.57;3.60;;;26.70;74.30;;;;;;5052856;28;20070;-63
2021/08/22 12:52:32;;;;;;;;;;;;;;;;;;;;;
2021/08/22 13:02:02;;;;;;;3.15;2.10;;;26.30;78.10;;;;;;4964654;28;20059;-63
2021/08/22 13:04:28;;;;;;;3.60;2.58;;;26.50;78.30;;;;;;5051881;28;20068;-63
2021/08/22 13:07:45;;;;;;;;;;;;;;;;;;;;;
2021/08/22 13:10:10;;;;;;;3.17;2.08;;;26.50;76.70;;;;;;5043098;28;20531;-65
2021/08/22 13:12:36;;;;;;;2.50;1.75;;;26.30;76.60;;;;;;5052314;28;20111;-65
2021/08/22 13:15:07;;;;;;;2.33;1.58;;;26.30;77.10;;;;;;5051111;28;20458;-65